Ophir, CO (81426)

6:16 AM MDT on September 03, 2015 (GMT -0600)
Baked in Telluride, 127 S. Fir | | Change Station
CLOSE
Current Station
Personal Weather Station
Location: Telluride, CO
Elevation: 8786 ft
Nearby Weather Stations

Elev 8786 ft 37.94 °N, 107.81 °W | Updated 1 second ago

Rain
Rain
48.8 °F
Feels Like 49 °F
N
0.0
Wind Variable Wind from NW
Gusts 0.0 mph

Today
High -- | Low -- °F
--% Chance of Precip.
Yesterday
High -- | Low -- °F
Precip. -- in
6:43 AM 7:38 PM
Waning Gibbous, 71% visible
Pressure 30.39 in
Visibility 7.0 miles
Clouds Scattered Clouds 3500 ft
Mostly Cloudy 4400 ft
Overcast 5500 ft
Windchill 49 °F
Dew Point 47 °F
Humidity 92%
Rainfall 0.04 in
Snow Depth Not available.
UV 0 out of 12
Pollen 8.00 out of 12
Air Quality Not available.
Flu Activity Not available.
METAR KTEX 031215Z AUTO 00000KT 7SM RA SCT035 BKN044 OVC055 11/09 A3039 RMK AO2 LTG DSNT N T01060088
Pressure 30.39 in
Visibility 7.0 miles
Clouds Scattered Clouds 3500 ft
Mostly Cloudy 4400 ft
Overcast 5500 ft
Windchill 49 °F
Dew Point 47 °F
Humidity 92%
Rainfall 0.04 in
Snow Depth Not available.
UV 0 out of 12
Pollen 8.00 out of 12
Air Quality Not available.
Flu Activity Not available.
METAR KTEX 031215Z AUTO 00000KT 7SM RA SCT035 BKN044 OVC055 11/09 A3039 RMK AO2 LTG DSNT N T01060088

10-Day Weather Forecast

×

Almanac

Astronomy

Sep. 03, 2015 Rise Set
Actual Time
Civil Twilight
Nautical Twilight
Astronomical Twilight
Moon
Length of Visible Light
Length of Day
Tomorrow will be .
, % of the Moon is Illuminated

Today's Extremes

State Highs State Lows

Community

WunderPhotos

Upload Photos

1,851,943 photos uploaded!

WunderBlogs® & News

Nearby

Air Quality

  Air Quality AQ Index Pollutant
Not available.

Snow Depth

Station Depth Elevation

Earthquake Activity

City Distance Mag. Time & Date
Minimum magnitude displayed is 2.5.

Coastal Water Temperatures

Place Temperature

Stations

Nearby Weather Stations

Station Location Temp. Windchill Dew Point Humidity Wind Precip. Elev Updated Type